Mountain Village, Alaska
Current Conditions -  °F | °C
As of 5:56 PM on Monday 22 Dec 2014 (Local Time) from PAMO Reporting Station
Overcast Overcast  
Wind Chill: -7°   Ceiling: 1400
Heat Index:   Visibility: 10mi
Dew Point:   Wind: 8mph
Humidity: 84%   Direction: 360°N
Pressure: 30.04"   Gusts: NA
Location:  62.09°N, 163.73°W
Report Text: PAMO 230256Z AUTO 36007KT 10SM OVC014 M14/M17 A3004 RMK AO2 TSNO 51005 T11441166 SLP058 $
Loading
Personal Weather Stations






























Interactive Weather Map New forecast layout! Learn more

10-Day Weather Forecast

Advertisements
Track Severe Weather on mobile